createdAt,value
2017-01-19T00:00:35.632Z,1011.54
2017-01-19T00:01:16.201Z,1011.54
2017-01-19T00:01:56.789Z,1011.53
2017-01-19T00:02:37.368Z,1011.52
2017-01-19T00:03:17.952Z,1011.51
2017-01-19T00:03:58.550Z,1011.5
2017-01-19T00:04:39.156Z,1011.49
2017-01-19T00:05:19.767Z,1011.52
2017-01-19T00:06:00.345Z,1011.48
2017-01-19T00:06:40.934Z,1011.47
2017-01-19T00:07:21.524Z,1011.46
2017-01-19T00:08:02.112Z,1011.43
2017-01-19T00:08:42.717Z,1011.45
2017-01-19T00:09:23.306Z,1011.47
2017-01-19T00:10:03.915Z,1011.48
2017-01-19T00:10:44.503Z,1011.52
2017-01-19T00:11:25.074Z,1011.52
2017-01-19T00:12:05.674Z,1011.53
2017-01-19T00:12:46.254Z,1011.53
2017-01-19T00:13:26.836Z,1011.51
2017-01-19T00:14:07.434Z,1011.55
2017-01-19T00:14:48.018Z,1011.55
2017-01-19T00:15:28.601Z,1011.57
2017-01-19T00:16:09.187Z,1011.58
2017-01-19T00:16:49.773Z,1011.57
2017-01-19T00:17:30.357Z,1011.57
2017-01-19T00:18:10.947Z,1011.57
2017-01-19T00:18:51.523Z,1011.55
2017-01-19T00:19:32.101Z,1011.56
2017-01-19T00:20:12.719Z,1011.55
2017-01-19T00:20:53.309Z,1011.56
2017-01-19T00:21:33.901Z,1011.55
2017-01-19T00:22:14.483Z,1011.54
2017-01-19T00:22:55.075Z,1011.52
2017-01-19T00:23:35.662Z,1011.48
2017-01-19T00:24:16.274Z,1011.49
2017-01-19T00:24:56.844Z,1011.51
2017-01-19T00:25:37.428Z,1011.48
2017-01-19T00:26:18.005Z,1011.54
2017-01-19T00:26:58.581Z,1011.53
2017-01-19T00:27:39.172Z,1011.53
2017-01-19T00:28:19.771Z,1011.55
2017-01-19T00:29:00.352Z,1011.56
2017-01-19T00:29:40.935Z,1011.55
2017-01-19T00:30:21.527Z,1011.56
2017-01-19T00:31:02.129Z,1011.58
2017-01-19T00:31:42.732Z,1011.63
2017-01-19T00:32:23.327Z,1011.59
2017-01-19T00:33:03.916Z,1011.6
2017-01-19T00:33:44.496Z,1011.63
2017-01-19T00:34:25.085Z,1011.63
2017-01-19T00:35:05.681Z,1011.64
2017-01-19T00:35:46.280Z,1011.67
2017-01-19T00:36:26.877Z,1011.66
2017-01-19T00:37:07.452Z,1011.65
2017-01-19T00:37:48.046Z,1011.61
2017-01-19T00:38:28.640Z,1011.58
2017-01-19T00:39:09.240Z,1011.59
2017-01-19T00:39:49.847Z,1011.64
2017-01-19T00:40:30.442Z,1011.64
2017-01-19T00:41:11.045Z,1011.62
2017-01-19T00:41:51.613Z,1011.65
2017-01-19T00:42:32.194Z,1011.64
2017-01-19T00:43:12.802Z,1011.62
2017-01-19T00:43:53.388Z,1011.61
2017-01-19T00:44:33.969Z,1011.61
2017-01-19T00:45:14.563Z,1011.58
2017-01-19T00:45:55.144Z,1011.57
2017-01-19T00:46:35.726Z,1011.57
2017-01-19T00:47:16.304Z,1011.57
2017-01-19T00:47:56.896Z,1011.56
2017-01-19T00:48:37.476Z,1011.61
2017-01-19T00:49:18.055Z,1011.62
2017-01-19T00:49:58.643Z,1011.62
2017-01-19T00:50:39.221Z,1011.6
2017-01-19T00:51:19.812Z,1011.6
2017-01-19T00:52:00.400Z,1011.6
2017-01-19T00:52:40.987Z,1011.6
2017-01-19T00:53:21.562Z,1011.56
2017-01-19T00:54:02.149Z,1011.56
2017-01-19T00:54:42.739Z,1011.54
2017-01-19T00:55:23.322Z,1011.48
2017-01-19T00:56:03.897Z,1011.51
2017-01-19T00:56:44.493Z,1011.49
2017-01-19T00:57:25.067Z,1011.55
2017-01-19T00:58:05.655Z,1011.58
2017-01-19T00:58:46.243Z,1011.54
2017-01-19T00:59:26.821Z,1011.54
2017-01-19T01:00:07.402Z,1011.55
2017-01-19T01:00:47.988Z,1011.56
2017-01-19T01:01:28.571Z,1011.6
2017-01-19T01:02:09.151Z,1011.53
2017-01-19T01:02:49.731Z,1011.5
2017-01-19T01:03:30.311Z,1011.52
2017-01-19T01:04:10.903Z,1011.51
2017-01-19T01:04:51.494Z,1011.45
2017-01-19T01:05:32.085Z,1011.44
2017-01-19T01:06:12.682Z,1011.45
2017-01-19T01:06:53.269Z,1011.44
2017-01-19T01:07:33.862Z,1011.39
2017-01-19T01:08:14.452Z,1011.35
2017-01-19T01:08:55.031Z,1011.37
2017-01-19T01:09:35.622Z,1011.33
2017-01-19T01:10:16.216Z,1011.3
2017-01-19T01:10:56.807Z,1011.3
2017-01-19T01:11:37.395Z,1011.29
2017-01-19T01:12:17.988Z,1011.26
2017-01-19T01:12:58.576Z,1011.23
2017-01-19T01:13:39.178Z,1011.25
2017-01-19T01:14:19.767Z,1011.24
2017-01-19T01:15:00.346Z,1011.26
2017-01-19T01:15:40.935Z,1011.26
2017-01-19T01:16:21.515Z,1011.24
2017-01-19T01:17:02.108Z,1011.24
2017-01-19T01:17:42.688Z,1011.25
2017-01-19T01:18:23.282Z,1011.25
2017-01-19T01:19:03.882Z,1011.28
2017-01-19T01:19:44.471Z,1011.31
2017-01-19T01:20:25.061Z,1011.34
2017-01-19T01:21:05.639Z,1011.42
2017-01-19T01:21:46.220Z,1011.37
2017-01-19T01:22:26.796Z,1011.33
2017-01-19T01:23:07.377Z,1011.26
2017-01-19T01:23:47.964Z,1011.27
2017-01-19T01:24:28.543Z,1011.28
2017-01-19T01:25:09.167Z,1011.19
2017-01-19T01:25:49.736Z,1011.2
2017-01-19T01:26:30.310Z,1011.18
2017-01-19T01:27:10.898Z,1011.21
2017-01-19T01:27:51.493Z,1011.14
2017-01-19T01:28:32.684Z,1011.15
2017-01-19T01:29:12.659Z,1011.11
2017-01-19T01:29:53.242Z,1011.09
2017-01-19T01:30:33.833Z,1011.12
2017-01-19T01:31:14.420Z,1011.19
2017-01-19T01:31:55.026Z,1011.17
2017-01-19T01:32:35.609Z,1011.13
2017-01-19T01:33:16.205Z,1011.14
2017-01-19T01:33:56.779Z,1011.16
2017-01-19T01:34:37.377Z,1011.18
2017-01-19T01:35:17.975Z,1011.17
2017-01-19T01:35:58.567Z,1011.21
2017-01-19T01:36:39.144Z,1011.21
2017-01-19T01:37:19.725Z,1011.18
2017-01-19T01:38:00.310Z,1011.19
2017-01-19T01:38:40.888Z,1011.17
2017-01-19T01:39:21.482Z,1011.2
2017-01-19T01:40:02.071Z,1011.16
2017-01-19T01:40:42.658Z,1011.18
2017-01-19T01:41:23.249Z,1011.18
2017-01-19T01:42:03.830Z,1011.11
2017-01-19T01:42:44.412Z,1011.12
2017-01-19T01:43:24.990Z,1011.13
2017-01-19T01:44:05.575Z,1011.08
2017-01-19T01:44:46.157Z,1011.06
2017-01-19T01:45:26.743Z,1011.05
2017-01-19T01:46:07.336Z,1010.99
2017-01-19T01:46:47.917Z,1010.98
2017-01-19T01:47:28.494Z,1010.94
2017-01-19T01:48:09.076Z,1010.9
2017-01-19T01:48:49.669Z,1010.89
2017-01-19T01:49:30.255Z,1010.89
2017-01-19T01:50:10.839Z,1010.91
2017-01-19T01:50:51.430Z,1010.89
2017-01-19T01:51:32.012Z,1010.93
2017-01-19T01:52:12.598Z,1010.94
2017-01-19T01:52:53.185Z,1010.91
2017-01-19T01:53:33.763Z,1010.92
2017-01-19T01:54:14.349Z,1010.93
2017-01-19T01:54:54.942Z,1010.84
2017-01-19T01:55:35.521Z,1010.89
2017-01-19T01:56:16.097Z,1010.88
2017-01-19T01:56:56.673Z,1010.88
2017-01-19T01:57:38.206Z,1010.85
2017-01-19T01:58:18.405Z,1010.88
2017-01-19T01:58:58.991Z,1010.86
2017-01-19T01:59:39.577Z,1010.85
2017-01-19T02:00:20.159Z,1010.89
2017-01-19T02:01:00.741Z,1010.87
2017-01-19T02:01:41.336Z,1010.88
2017-01-19T02:02:21.929Z,1010.85
2017-01-19T02:03:02.507Z,1010.86
2017-01-19T02:03:43.096Z,1010.87
2017-01-19T02:04:23.685Z,1010.88
2017-01-19T02:05:04.262Z,1010.86
2017-01-19T02:05:44.841Z,1010.85
2017-01-19T02:06:25.421Z,1010.87
2017-01-19T02:07:06.003Z,1010.88
2017-01-19T02:07:46.610Z,1010.86
2017-01-19T02:08:27.204Z,1010.89
2017-01-19T02:09:07.789Z,1010.85
2017-01-19T02:09:48.375Z,1010.87
2017-01-19T02:10:28.958Z,1010.89
2017-01-19T02:11:09.537Z,1010.9
2017-01-19T02:11:50.118Z,1010.92
2017-01-19T02:12:30.706Z,1010.92
2017-01-19T02:13:11.298Z,1010.93
2017-01-19T02:13:51.879Z,1010.95
2017-01-19T02:14:32.462Z,1010.92
2017-01-19T02:15:13.062Z,1010.94
2017-01-19T02:15:53.638Z,1010.97
2017-01-19T02:16:34.222Z,1010.97
2017-01-19T02:17:14.806Z,1010.97
2017-01-19T02:17:55.398Z,1010.99
2017-01-19T02:18:35.976Z,1011.02
2017-01-19T02:19:16.561Z,1011.07
2017-01-19T02:19:57.147Z,1011.13
2017-01-19T02:20:37.737Z,1011.19
2017-01-19T02:21:18.316Z,1011.17
2017-01-19T02:21:58.893Z,1011.21
2017-01-19T02:22:39.484Z,1011.19
2017-01-19T02:23:20.066Z,1011.19
2017-01-19T02:24:00.660Z,1011.16
2017-01-19T02:24:41.238Z,1011.21
2017-01-19T02:25:21.833Z,1011.18
2017-01-19T02:26:02.415Z,1011.16
2017-01-19T02:26:43.005Z,1011.13
2017-01-19T02:27:23.602Z,1011.13
2017-01-19T02:28:04.192Z,1011.15
2017-01-19T02:28:44.768Z,1011.16
2017-01-19T02:29:25.368Z,1011.22
2017-01-19T02:30:05.985Z,1011.17
2017-01-19T02:30:47.321Z,1011.17
2017-01-19T02:31:27.901Z,1011.22
2017-01-19T02:32:08.487Z,1011.19
2017-01-19T02:32:49.084Z,1011.21
2017-01-19T02:33:29.696Z,1011.19
2017-01-19T02:34:10.286Z,1011.21
2017-01-19T02:34:50.869Z,1011.22
2017-01-19T02:35:31.449Z,1011.2
2017-01-19T02:36:12.041Z,1011.2
2017-01-19T02:36:52.650Z,1011.19
2017-01-19T02:37:33.245Z,1011.24
2017-01-19T02:38:13.849Z,1011.22
2017-01-19T02:38:54.480Z,1011.25
2017-01-19T02:39:35.082Z,1011.27
2017-01-19T02:40:15.670Z,1011.26
2017-01-19T02:40:56.258Z,1011.28
2017-01-19T02:41:36.854Z,1011.29
2017-01-19T02:42:17.448Z,1011.29
2017-01-19T02:42:58.020Z,1011.31
2017-01-19T02:43:38.608Z,1011.29
2017-01-19T02:44:19.182Z,1011.3
2017-01-19T02:44:59.770Z,1011.31
2017-01-19T02:45:40.348Z,1011.31
2017-01-19T02:46:20.926Z,1011.33
2017-01-19T02:47:01.515Z,1011.31
2017-01-19T02:47:42.113Z,1011.32
2017-01-19T02:48:22.696Z,1011.32
2017-01-19T02:49:03.282Z,1011.31
2017-01-19T02:49:43.861Z,1011.32
2017-01-19T02:50:24.439Z,1011.32
2017-01-19T02:51:05.039Z,1011.35
2017-01-19T02:51:45.623Z,1011.3
2017-01-19T02:52:26.210Z,1011.34
2017-01-19T02:53:06.797Z,1011.31
2017-01-19T02:53:47.386Z,1011.3
2017-01-19T02:54:27.983Z,1011.31
2017-01-19T02:55:08.553Z,1011.3
2017-01-19T02:55:49.142Z,1011.3
2017-01-19T02:56:29.749Z,1011.32
2017-01-19T02:57:10.362Z,1011.29
2017-01-19T02:57:50.957Z,1011.27
2017-01-19T02:58:31.551Z,1011.3
2017-01-19T02:59:12.127Z,1011.27
2017-01-19T02:59:52.715Z,1011.26
2017-01-19T03:00:33.303Z,1011.3
2017-01-19T03:01:13.891Z,1011.25
2017-01-19T03:01:54.470Z,1011.31
2017-01-19T03:02:35.068Z,1011.31
2017-01-19T03:03:15.660Z,1011.27
2017-01-19T03:03:56.252Z,1011.25
2017-01-19T03:04:36.827Z,1011.27
2017-01-19T03:05:17.413Z,1011.27
2017-01-19T03:05:57.989Z,1011.27
2017-01-19T03:06:38.566Z,1011.28
2017-01-19T03:07:19.140Z,1011.27
2017-01-19T03:07:59.731Z,1011.27
2017-01-19T03:08:40.313Z,1011.23
2017-01-19T03:09:20.892Z,1011.24
2017-01-19T03:10:01.475Z,1011.21
2017-01-19T03:10:42.047Z,1011.23
2017-01-19T03:11:22.634Z,1011.24
2017-01-19T03:12:03.218Z,1011.24
2017-01-19T03:12:43.823Z,1011.22
2017-01-19T03:13:24.400Z,1011.23
2017-01-19T03:14:04.998Z,1011.23
2017-01-19T03:14:45.589Z,1011.26
2017-01-19T03:15:26.179Z,1011.23
2017-01-19T03:16:06.768Z,1011.18
2017-01-19T03:16:47.364Z,1011.21
2017-01-19T03:17:27.950Z,1011.19
2017-01-19T03:18:08.549Z,1011.15
2017-01-19T03:18:49.137Z,1011.15
2017-01-19T03:19:29.732Z,1011.09
2017-01-19T03:20:10.315Z,1011.09
2017-01-19T03:20:50.909Z,1011.1
2017-01-19T03:21:31.488Z,1011.11
2017-01-19T03:22:12.070Z,1011.1
2017-01-19T03:22:52.647Z,1011.13
2017-01-19T03:23:33.238Z,1011.1
2017-01-19T03:24:13.848Z,1011.11
2017-01-19T03:24:54.443Z,1011.08
2017-01-19T03:25:35.031Z,1011.08
2017-01-19T03:26:15.607Z,1011.08
2017-01-19T03:26:56.200Z,1011.07
2017-01-19T03:27:36.793Z,1011.08
2017-01-19T03:28:17.382Z,1011.07
2017-01-19T03:28:57.962Z,1011.11
2017-01-19T03:29:38.543Z,1011.13
2017-01-19T03:30:19.122Z,1011.12
2017-01-19T03:30:59.711Z,1011.12
2017-01-19T03:31:40.284Z,1011.1
2017-01-19T03:32:20.866Z,1011.06
2017-01-19T03:33:01.467Z,1011.12
2017-01-19T03:33:42.057Z,1011.12
2017-01-19T03:34:22.642Z,1011.11
2017-01-19T03:35:03.230Z,1011.13
2017-01-19T03:35:43.812Z,1011.07
2017-01-19T03:36:24.406Z,1011.06
2017-01-19T03:37:04.984Z,1011.02
2017-01-19T03:37:45.563Z,1011.03
2017-01-19T03:38:26.159Z,1011.04
2017-01-19T03:39:06.748Z,1010.99
2017-01-19T03:39:47.336Z,1011
2017-01-19T03:40:27.923Z,1010.95
2017-01-19T03:41:08.511Z,1010.91
2017-01-19T03:41:49.088Z,1010.91
2017-01-19T03:42:29.684Z,1010.87
2017-01-19T03:43:10.265Z,1010.83
2017-01-19T03:43:50.847Z,1010.82
2017-01-19T03:44:31.427Z,1010.76
2017-01-19T03:45:12.012Z,1010.75
2017-01-19T03:45:52.599Z,1010.77
2017-01-19T03:46:33.193Z,1010.77
2017-01-19T03:47:13.788Z,1010.8
2017-01-19T03:47:54.392Z,1010.85
2017-01-19T03:48:34.969Z,1010.87
2017-01-19T03:49:15.547Z,1010.88
2017-01-19T03:49:56.153Z,1010.88
2017-01-19T03:50:36.742Z,1010.85
2017-01-19T03:51:17.342Z,1010.86
2017-01-19T03:51:57.933Z,1010.82
2017-01-19T03:52:38.525Z,1010.78
2017-01-19T03:53:19.108Z,1010.8
2017-01-19T03:53:59.707Z,1010.84
2017-01-19T03:54:40.304Z,1010.85
2017-01-19T03:55:20.887Z,1010.84
2017-01-19T03:56:01.473Z,1010.85
2017-01-19T03:56:42.058Z,1010.86
2017-01-19T03:57:22.650Z,1010.85
2017-01-19T03:58:03.218Z,1010.8
2017-01-19T03:58:43.812Z,1010.83
2017-01-19T03:59:24.398Z,1010.8
2017-01-19T04:00:04.977Z,1010.84
2017-01-19T04:00:45.562Z,1010.82
2017-01-19T04:01:26.141Z,1010.82
2017-01-19T04:02:06.741Z,1010.79
2017-01-19T04:02:47.324Z,1010.85
2017-01-19T04:03:27.911Z,1010.83
2017-01-19T04:04:08.509Z,1010.84
2017-01-19T04:04:49.082Z,1010.81
2017-01-19T04:05:29.671Z,1010.83
2017-01-19T04:06:10.244Z,1010.84
2017-01-19T04:06:50.840Z,1010.86
2017-01-19T04:07:31.436Z,1010.85
2017-01-19T04:08:12.053Z,1010.82
2017-01-19T04:08:52.636Z,1010.81
2017-01-19T04:09:33.227Z,1010.81
2017-01-19T04:10:13.832Z,1010.79
2017-01-19T04:10:54.426Z,1010.81
2017-01-19T04:11:35.023Z,1010.78
2017-01-19T04:12:15.605Z,1010.81
2017-01-19T04:12:56.196Z,1010.82
2017-01-19T04:13:36.782Z,1010.82
2017-01-19T04:14:17.363Z,1010.72
2017-01-19T04:14:57.950Z,1010.8
2017-01-19T04:15:38.539Z,1010.8
2017-01-19T04:16:19.119Z,1010.8
2017-01-19T04:16:59.707Z,1010.73
2017-01-19T04:17:40.308Z,1010.74
2017-01-19T04:18:20.898Z,1010.76
2017-01-19T04:19:01.476Z,1010.81
2017-01-19T04:19:42.052Z,1010.79
2017-01-19T04:20:22.646Z,1010.8
2017-01-19T04:21:03.232Z,1010.8
2017-01-19T04:21:43.832Z,1010.82
2017-01-19T04:22:24.421Z,1010.81
2017-01-19T04:23:05.012Z,1010.82
2017-01-19T04:23:45.588Z,1010.86
2017-01-19T04:24:26.167Z,1010.9
2017-01-19T04:25:06.754Z,1010.88
2017-01-19T04:25:47.337Z,1010.87
2017-01-19T04:26:27.931Z,1010.92
2017-01-19T04:27:08.510Z,1010.87
2017-01-19T04:27:49.672Z,1010.93
2017-01-19T04:28:30.249Z,1010.93
2017-01-19T04:29:10.834Z,1010.95
2017-01-19T04:29:51.426Z,1010.96
2017-01-19T04:30:32.009Z,1010.96
2017-01-19T04:31:12.598Z,1010.97
2017-01-19T04:31:53.180Z,1010.96
2017-01-19T04:32:33.771Z,1010.99
2017-01-19T04:33:14.349Z,1011
2017-01-19T04:33:54.944Z,1011.01
2017-01-19T04:34:35.523Z,1011.01
2017-01-19T04:35:16.105Z,1011.05
2017-01-19T04:35:56.683Z,1011
2017-01-19T04:36:37.286Z,1011.04
2017-01-19T04:37:17.886Z,1011.02
2017-01-19T04:37:58.464Z,1011.05
2017-01-19T04:38:39.061Z,1011.07
2017-01-19T04:39:19.658Z,1011.08
2017-01-19T04:40:00.238Z,1011.11
2017-01-19T04:40:40.817Z,1011.07
2017-01-19T04:41:21.398Z,1011.07
2017-01-19T04:42:01.985Z,1011.12
2017-01-19T04:42:42.578Z,1011.07
2017-01-19T04:43:23.195Z,1011.04
2017-01-19T04:44:03.775Z,1011.02
2017-01-19T04:44:44.377Z,1011.02
2017-01-19T04:45:24.959Z,1011
2017-01-19T04:46:05.549Z,1011
2017-01-19T04:46:46.130Z,1010.98
2017-01-19T04:47:26.720Z,1011.01
2017-01-19T04:48:07.308Z,1011
2017-01-19T04:48:47.888Z,1010.98
2017-01-19T04:49:28.463Z,1011
2017-01-19T04:50:09.043Z,1011
2017-01-19T04:50:49.615Z,1010.98
2017-01-19T04:51:30.194Z,1010.91
2017-01-19T04:52:10.781Z,1010.85
2017-01-19T04:52:51.373Z,1010.89
2017-01-19T04:53:31.962Z,1010.88
2017-01-19T04:54:12.554Z,1010.87
2017-01-19T04:54:53.138Z,1010.87
2017-01-19T04:55:33.723Z,1010.84
2017-01-19T04:56:14.298Z,1010.83
2017-01-19T04:56:54.878Z,1010.83
2017-01-19T04:57:35.462Z,1010.81
2017-01-19T04:58:16.043Z,1010.81
2017-01-19T04:58:56.640Z,1010.76
2017-01-19T04:59:37.232Z,1010.79
2017-01-19T05:00:17.806Z,1010.76
2017-01-19T05:00:58.398Z,1010.76
2017-01-19T05:01:38.985Z,1010.77
2017-01-19T05:02:19.568Z,1010.76
2017-01-19T05:03:00.152Z,1010.74
2017-01-19T05:03:40.747Z,1010.76
2017-01-19T05:04:21.334Z,1010.7
2017-01-19T05:05:01.920Z,1010.72
2017-01-19T05:05:42.514Z,1010.67
2017-01-19T05:06:23.111Z,1010.68
2017-01-19T05:07:03.688Z,1010.67
2017-01-19T05:07:44.268Z,1010.67
2017-01-19T05:08:24.854Z,1010.67
2017-01-19T05:09:05.444Z,1010.63
2017-01-19T05:09:46.015Z,1010.6
2017-01-19T05:10:26.605Z,1010.69
2017-01-19T05:11:07.199Z,1010.68
2017-01-19T05:11:47.780Z,1010.66
2017-01-19T05:12:28.369Z,1010.61
2017-01-19T05:13:08.969Z,1010.58
2017-01-19T05:13:49.549Z,1010.59
2017-01-19T05:14:30.130Z,1010.6
2017-01-19T05:15:10.722Z,1010.57
2017-01-19T05:15:51.300Z,1010.59
2017-01-19T05:16:31.883Z,1010.6
2017-01-19T05:17:12.479Z,1010.52
2017-01-19T05:17:53.076Z,1010.54
2017-01-19T05:18:33.661Z,1010.53
2017-01-19T05:19:14.232Z,1010.56
2017-01-19T05:19:54.808Z,1010.6
2017-01-19T05:20:35.390Z,1010.46
2017-01-19T05:21:15.999Z,1010.46
2017-01-19T05:21:56.584Z,1010.49
2017-01-19T05:22:37.193Z,1010.43
2017-01-19T05:23:17.789Z,1010.48
2017-01-19T05:23:58.371Z,1010.45
2017-01-19T05:24:38.962Z,1010.44
2017-01-19T05:25:19.574Z,1010.45
2017-01-19T05:26:00.155Z,1010.44
2017-01-19T05:26:40.746Z,1010.4
2017-01-19T05:27:21.325Z,1010.39
2017-01-19T05:28:01.902Z,1010.4
2017-01-19T05:28:42.498Z,1010.41
2017-01-19T05:29:23.082Z,1010.38
2017-01-19T05:30:03.669Z,1010.36
2017-01-19T05:30:44.253Z,1010.35
2017-01-19T05:31:24.825Z,1010.34
2017-01-19T05:32:05.401Z,1010.32
2017-01-19T05:32:46.003Z,1010.3
2017-01-19T05:33:26.583Z,1010.34
2017-01-19T05:34:07.160Z,1010.32
2017-01-19T05:34:47.756Z,1010.24
2017-01-19T05:35:28.337Z,1010.13
2017-01-19T05:36:08.924Z,1010.18
2017-01-19T05:36:49.511Z,1010.1
2017-01-19T05:37:30.093Z,1010.11
2017-01-19T05:38:10.672Z,1010.13
2017-01-19T05:38:51.252Z,1010.04
2017-01-19T05:39:31.835Z,1010.04
2017-01-19T05:40:12.418Z,1010.03
2017-01-19T05:40:53.004Z,1009.99
2017-01-19T05:41:33.599Z,1009.95
2017-01-19T05:42:14.181Z,1009.9
2017-01-19T05:42:54.766Z,1009.79
2017-01-19T05:43:35.354Z,1009.78
2017-01-19T05:44:15.936Z,1009.9
2017-01-19T05:44:56.513Z,1009.82
2017-01-19T05:45:37.096Z,1009.84
2017-01-19T05:46:17.680Z,1009.91
2017-01-19T05:46:58.267Z,1009.85
2017-01-19T05:47:38.866Z,1009.69
2017-01-19T05:48:19.458Z,1009.71
2017-01-19T05:49:00.027Z,1009.75
2017-01-19T05:49:40.622Z,1009.8
2017-01-19T05:50:21.236Z,1009.77
2017-01-19T05:51:01.832Z,1009.76
2017-01-19T05:51:42.435Z,1009.75
2017-01-19T05:52:23.023Z,1009.71
2017-01-19T05:53:03.618Z,1009.71
2017-01-19T05:53:44.196Z,1009.71
2017-01-19T05:54:24.774Z,1009.74
2017-01-19T05:55:05.349Z,1009.75
2017-01-19T05:55:45.948Z,1009.7
2017-01-19T05:56:26.527Z,1009.75
2017-01-19T05:57:07.121Z,1009.7
2017-01-19T05:57:47.701Z,1009.78
2017-01-19T05:58:28.288Z,1009.79
2017-01-19T05:59:08.863Z,1009.77
2017-01-19T05:59:49.439Z,1009.77
2017-01-19T06:00:30.028Z,1009.8
2017-01-19T06:01:10.631Z,1009.76
2017-01-19T06:01:51.210Z,1009.79
2017-01-19T06:02:31.796Z,1009.8
2017-01-19T06:03:12.385Z,1009.79
2017-01-19T06:03:52.971Z,1009.72
2017-01-19T06:04:33.550Z,1009.76
2017-01-19T06:05:14.139Z,1009.86
2017-01-19T06:05:54.722Z,1009.83
2017-01-19T06:06:35.315Z,1009.86
2017-01-19T06:07:15.909Z,1009.75
2017-01-19T06:07:56.505Z,1009.83
2017-01-19T06:08:37.084Z,1009.81
2017-01-19T06:09:17.676Z,1009.83
2017-01-19T06:09:58.267Z,1009.82
2017-01-19T06:10:38.848Z,1009.78
2017-01-19T06:11:19.449Z,1009.77
2017-01-19T06:12:00.034Z,1009.76
2017-01-19T06:12:40.625Z,1009.78
2017-01-19T06:13:21.213Z,1009.81
2017-01-19T06:14:01.796Z,1009.77
2017-01-19T06:14:42.376Z,1009.76
2017-01-19T06:15:22.958Z,1009.81
2017-01-19T06:16:03.544Z,1009.84
2017-01-19T06:16:44.142Z,1009.79
2017-01-19T06:17:24.733Z,1009.87
2017-01-19T06:18:05.335Z,1009.87
2017-01-19T06:18:45.923Z,1009.85
2017-01-19T06:19:26.508Z,1009.94
2017-01-19T06:20:07.099Z,1009.91
2017-01-19T06:20:47.689Z,1009.93
2017-01-19T06:21:28.282Z,1009.95
2017-01-19T06:22:08.859Z,1009.87
2017-01-19T06:22:49.442Z,1009.86
2017-01-19T06:23:30.023Z,1009.84
2017-01-19T06:24:10.608Z,1009.89
2017-01-19T06:24:51.212Z,1009.92
2017-01-19T06:25:31.809Z,1009.88
2017-01-19T06:26:12.392Z,1009.86
2017-01-19T06:26:52.994Z,1009.81
2017-01-19T06:27:33.574Z,1009.93
2017-01-19T06:28:14.158Z,1009.82
2017-01-19T06:28:54.733Z,1009.87
2017-01-19T06:29:35.316Z,1009.93
2017-01-19T06:30:15.913Z,1009.84
2017-01-19T06:30:56.502Z,1009.86
2017-01-19T06:31:37.081Z,1009.88
2017-01-19T06:32:17.673Z,1009.86
2017-01-19T06:32:58.264Z,1009.9
2017-01-19T06:33:38.847Z,1009.82
2017-01-19T06:34:19.428Z,1009.81
2017-01-19T06:35:00.020Z,1009.88
2017-01-19T06:35:40.607Z,1009.95
2017-01-19T06:36:21.205Z,1009.95
2017-01-19T06:37:01.797Z,1009.94
2017-01-19T06:37:42.382Z,1009.84
2017-01-19T06:38:22.978Z,1009.87
2017-01-19T06:39:03.570Z,1009.94
2017-01-19T06:39:44.154Z,1009.97
2017-01-19T06:40:24.733Z,1009.99
2017-01-19T06:41:05.347Z,1010.01
2017-01-19T06:41:45.939Z,1010.05
2017-01-19T06:42:26.529Z,1010.1
2017-01-19T06:43:07.105Z,1010.1
2017-01-19T06:43:47.708Z,1010.07
2017-01-19T06:44:28.307Z,1010.1
2017-01-19T06:45:08.897Z,1010.11
2017-01-19T06:45:49.496Z,1010.09
2017-01-19T06:46:30.104Z,1010.1
2017-01-19T06:47:10.717Z,1010.1
2017-01-19T06:47:51.307Z,1010.1
2017-01-19T06:48:31.922Z,1010.1
2017-01-19T06:49:12.521Z,1010.05
2017-01-19T06:49:53.116Z,1009.99
2017-01-19T06:50:33.712Z,1010.05
2017-01-19T06:51:14.287Z,1010.11
2017-01-19T06:51:54.867Z,1010.06
2017-01-19T06:52:35.467Z,1010.07
2017-01-19T06:53:16.081Z,1010.05
2017-01-19T06:53:56.689Z,1010.13
2017-01-19T06:54:37.274Z,1010.03
2017-01-19T06:55:17.875Z,1010.03
2017-01-19T06:55:58.460Z,1010
2017-01-19T06:56:39.059Z,1009.96
2017-01-19T06:57:19.646Z,1009.96
2017-01-19T06:58:00.238Z,1009.92
2017-01-19T06:58:40.840Z,1009.94
2017-01-19T06:59:21.436Z,1009.92
2017-01-19T07:00:02.036Z,1009.91
2017-01-19T07:00:42.619Z,1009.92
2017-01-19T07:01:23.218Z,1009.92
2017-01-19T07:02:03.810Z,1009.91
2017-01-19T07:02:44.426Z,1009.9
2017-01-19T07:03:25.015Z,1009.86
2017-01-19T07:04:05.614Z,1009.89
2017-01-19T07:04:46.215Z,1009.9
2017-01-19T07:05:26.845Z,1009.92
2017-01-19T07:06:07.428Z,1009.91
2017-01-19T07:06:48.010Z,1009.9
2017-01-19T07:07:28.616Z,1009.77
2017-01-19T07:08:09.220Z,1009.76
2017-01-19T07:08:49.816Z,1009.86
2017-01-19T07:09:30.418Z,1009.9
2017-01-19T07:10:11.018Z,1009.93
2017-01-19T07:10:51.647Z,1009.76
2017-01-19T07:11:32.230Z,1009.87
2017-01-19T07:12:12.834Z,1009.91
2017-01-19T07:12:53.426Z,1009.86
2017-01-19T07:13:34.033Z,1009.76
2017-01-19T07:14:14.643Z,1009.74
2017-01-19T07:14:55.241Z,1009.87
2017-01-19T07:15:35.851Z,1009.81
2017-01-19T07:16:16.434Z,1009.66
2017-01-19T07:16:57.013Z,1009.76
2017-01-19T07:17:37.606Z,1009.8
2017-01-19T07:18:18.197Z,1009.8
2017-01-19T07:18:58.793Z,1009.7
2017-01-19T07:19:39.417Z,1009.81
2017-01-19T07:20:20.013Z,1009.65
2017-01-19T07:21:01.475Z,1009.71
2017-01-19T07:21:42.093Z,1009.77
2017-01-19T07:22:22.711Z,1009.77
2017-01-19T07:23:03.314Z,1009.81
2017-01-19T07:23:43.966Z,1009.77
2017-01-19T07:24:24.496Z,1009.78
2017-01-19T07:25:05.110Z,1009.74
2017-01-19T07:25:45.710Z,1009.79
2017-01-19T07:26:26.914Z,1009.71
2017-01-19T07:27:07.011Z,1009.87
2017-01-19T07:27:47.606Z,1009.83
2017-01-19T07:28:28.202Z,1009.81
2017-01-19T07:29:08.803Z,1009.87
2017-01-19T07:29:49.416Z,1009.67
2017-01-19T07:30:30.058Z,1009.82
2017-01-19T07:31:10.675Z,1009.71
2017-01-19T07:31:51.274Z,1009.74
2017-01-19T07:32:31.911Z,1009.77
2017-01-19T07:33:12.515Z,1009.77
2017-01-19T07:33:53.133Z,1009.77
2017-01-19T07:34:33.721Z,1009.9
2017-01-19T07:35:14.302Z,1009.91
2017-01-19T07:35:54.884Z,1009.88
2017-01-19T07:36:35.485Z,1009.89
2017-01-19T07:37:16.083Z,1009.94
2017-01-19T07:37:56.678Z,1009.95
2017-01-19T07:38:37.284Z,1009.9
2017-01-19T07:39:17.878Z,1009.92
2017-01-19T07:39:58.475Z,1009.91
2017-01-19T07:40:39.071Z,1010.01
2017-01-19T07:41:19.663Z,1010.03
2017-01-19T07:42:00.247Z,1010.07
2017-01-19T07:42:40.867Z,1009.95
2017-01-19T07:43:21.460Z,1010.12
2017-01-19T07:44:02.055Z,1010.07
2017-01-19T07:44:42.680Z,1010.14
2017-01-19T07:45:23.291Z,1009.94
2017-01-19T07:46:03.915Z,1010.14
2017-01-19T07:46:44.499Z,1010.11
2017-01-19T07:47:25.994Z,1010.12
2017-01-19T07:48:06.586Z,1010.1
2017-01-19T07:48:47.187Z,1010.18
2017-01-19T07:49:27.785Z,1010.16
2017-01-19T07:50:08.396Z,1010.19
2017-01-19T07:50:48.988Z,1010.21
2017-01-19T07:51:29.589Z,1010.19
2017-01-19T07:52:10.202Z,1010.14
2017-01-19T07:52:50.793Z,1010.11
2017-01-19T07:53:31.403Z,1010.07
2017-01-19T07:54:11.985Z,1010.1
2017-01-19T07:54:52.741Z,1010.18
2017-01-19T07:55:33.328Z,1010.15
2017-01-19T07:56:13.928Z,1010.15
2017-01-19T07:56:54.516Z,1010.24
2017-01-19T07:57:35.114Z,1010.24
2017-01-19T07:58:15.728Z,1010.2
2017-01-19T07:58:56.349Z,1010.27
2017-01-19T07:59:36.945Z,1010.24
2017-01-19T08:00:17.554Z,1010.31
2017-01-19T08:00:58.155Z,1010.25
2017-01-19T08:01:38.755Z,1010.28
2017-01-19T08:02:19.348Z,1010.31
2017-01-19T08:02:59.948Z,1010.29
2017-01-19T08:03:40.888Z,1010.21
2017-01-19T08:04:21.505Z,1010.3
2017-01-19T08:05:02.103Z,1010.33
2017-01-19T08:05:42.761Z,1010.22
2017-01-19T08:06:23.360Z,1010.22
2017-01-19T08:07:03.970Z,1010.31
2017-01-19T08:07:44.580Z,1010.34
2017-01-19T08:08:25.172Z,1010.46
2017-01-19T08:09:05.774Z,1010.34
2017-01-19T08:09:46.365Z,1010.44
2017-01-19T08:10:26.978Z,1010.45
2017-01-19T08:11:07.603Z,1010.54
2017-01-19T08:11:48.191Z,1010.44
2017-01-19T08:12:28.777Z,1010.44
2017-01-19T08:13:09.406Z,1010.34